Time;durP1;ratioP1;P1;durP2;ratioP2;P2;SDS_P1;SDS_P2;PMS_P1;PMS_P2;Temp;Humidity;BMP_temperature;BMP_pressure;BME280_temperature;BME280_humidity;BME280_pressure;Samples;Min_cycle;Max_cycle;Signal;HPM_P1;HPM_P2
2022/01/21 00:00:35;;;;;;;8.13;2.45;;;;;;;;;;6277333;28;20055;-80
2022/01/21 00:03:37;;;;;;;10.27;1.95;;;;;;;;;;6261678;28;20087;-82
2022/01/21 00:06:39;;;;;;;6.70;1.70;;;;;;;;;;6262695;28;20052;-79
2022/01/21 00:09:46;;;;;;;4.60;1.50;;;;;;;;;;6267015;28;20072;-81
2022/01/21 00:12:52;;;;;;;5.68;2.00;;;;;;;;;;6259160;28;20632;-83
2022/01/21 00:15:53;;;;;;;11.23;2.42;;;;;;;;;;6260022;28;20128;-83
2022/01/21 00:19:02;;;;;;;5.28;1.40;;;;;;;;;;6258475;28;20043;-81
2022/01/21 00:32:06;;;;;;;7.00;1.60;;;;;;;;;;6262794;28;20445;-79
2022/01/21 00:35:08;;;;;;;5.15;1.58;;;;;;;;;;6265345;28;20044;-79
2022/01/21 00:38:13;;;;;;;6.93;1.42;;;;;;;;;;6263755;28;20043;-82
2022/01/21 00:41:20;;;;;;;7.40;1.63;;;;;;;;;;6279077;28;20101;-79
2022/01/21 00:44:23;;;;;;;10.23;1.83;;;;;;;;;;6264398;28;20055;-82
2022/01/21 00:47:26;;;;;;;5.95;2.10;;;;;;;;;;6245731;28;20139;-79
2022/01/21 00:50:28;;;;;;;4.88;1.63;;;;;;;;;;6262877;28;20175;-80
2022/01/21 00:53:29;;;;;;;8.95;2.28;;;;;;;;;;6263140;28;20124;-80
2022/01/21 00:56:31;;;;;;;5.82;1.80;;;;;;;;;;6263345;28;20632;-79
2022/01/21 00:59:33;;;;;;;7.13;1.67;;;;;;;;;;6263883;28;20052;-82
2022/01/21 01:02:35;;;;;;;7.55;2.00;;;;;;;;;;6262934;28;20049;-81
2022/01/21 01:05:36;;;;;;;7.30;2.10;;;;;;;;;;6245857;28;20118;-81
2022/01/21 01:08:38;;;;;;;11.55;2.00;;;;;;;;;;6277358;28;20126;-80
2022/01/21 01:21:43;;;;;;;5.63;1.80;;;;;;;;;;6266225;28;20041;-82
2022/01/21 01:27:47;;;;;;;5.43;1.90;;;;;;;;;;6251142;28;20513;-82
2022/01/21 01:30:50;;;;;;;7.15;2.20;;;;;;;;;;6259708;28;20152;-82
2022/01/21 01:33:58;;;;;;;4.68;2.38;;;;;;;;;;6259815;28;20128;-82
2022/01/21 01:37:04;;;;;;;7.10;1.80;;;;;;;;;;6277516;28;20149;-82
2022/01/21 01:40:19;;;;;;;11.88;2.83;;;;;;;;;;6243187;28;20095;-79
2022/01/21 01:49:54;;;;;;;7.35;2.17;;;;;;;;;;6267349;28;20052;-82
2022/01/21 01:52:56;;;;;;;15.43;2.40;;;;;;;;;;6284629;28;20120;-82
2022/01/21 01:55:58;;;;;;;6.47;2.10;;;;;;;;;;6268712;28;20040;-82
2022/01/21 01:59:00;;;;;;;7.37;2.47;;;;;;;;;;6268200;28;20102;-83
2022/01/21 02:02:12;;;;;;;9.40;3.25;;;;;;;;;;6256234;28;20118;-79
2022/01/21 02:05:14;;;;;;;5.70;2.17;;;;;;;;;;6277408;28;20056;-83
2022/01/21 02:08:16;;;;;;;10.23;3.10;;;;;;;;;;6244828;28;20448;-79
2022/01/21 02:11:18;;;;;;;11.70;2.90;;;;;;;;;;6261378;28;20176;-81
2022/01/21 02:14:25;;;;;;;8.45;2.60;;;;;;;;;;6268023;28;20044;-81
2022/01/21 02:23:51;;;;;;;7.78;2.50;;;;;;;;;;6266782;28;20052;-82
2022/01/21 02:26:53;;;;;;;9.63;2.55;;;;;;;;;;6248694;28;20075;-81
2022/01/21 02:30:02;;;;;;;8.73;2.55;;;;;;;;;;6266539;28;20122;-83
2022/01/21 02:33:06;;;;;;;10.57;2.78;;;;;;;;;;6264684;28;20049;-80
2022/01/21 02:36:07;;;;;;;7.82;2.85;;;;;;;;;;6266118;28;20422;-80
2022/01/21 02:39:09;;;;;;;7.63;3.03;;;;;;;;;;6281543;28;20044;-82
2022/01/21 02:42:11;;;;;;;11.18;2.80;;;;;;;;;;6234997;28;20045;-83
2022/01/21 02:45:14;;;;;;;12.15;2.70;;;;;;;;;;6265792;28;20107;-83
2022/01/21 02:48:19;;;;;;;6.63;2.90;;;;;;;;;;6249292;28;20098;-81
2022/01/21 02:51:23;;;;;;;15.07;3.00;;;;;;;;;;6282408;28;20045;-81
2022/01/21 02:54:25;;;;;;;7.40;3.40;;;;;;;;;;6249171;28;20041;-79
2022/01/21 02:57:27;;;;;;;12.98;3.03;;;;;;;;;;6265499;28;20045;-80
2022/01/21 03:00:30;;;;;;;9.70;2.60;;;;;;;;;;6264600;28;20171;-83
2022/01/21 03:03:32;;;;;;;7.28;2.80;;;;;;;;;;6251325;28;20452;-82
2022/01/21 03:06:38;;;;;;;14.07;3.53;;;;;;;;;;6265159;28;20045;-80
2022/01/21 03:09:43;;;;;;;10.45;3.58;;;;;;;;;;6282430;28;20047;-83
2022/01/21 03:12:44;;;;;;;7.82;3.47;;;;;;;;;;6280920;28;20108;-82
2022/01/21 03:15:46;;;;;;;11.32;3.53;;;;;;;;;;6222982;28;1066416;-79
2022/01/21 03:18:48;;;;;;;8.48;3.22;;;;;;;;;;6272213;28;20106;-83
2022/01/21 03:21:50;;;;;;;10.30;3.10;;;;;;;;;;6268566;28;20132;-81
2022/01/21 03:24:53;;;;;;;6.88;3.05;;;;;;;;;;6287198;28;20041;-82
2022/01/21 03:27:54;;;;;;;9.25;4.05;;;;;;;;;;6266311;28;20180;-78
2022/01/21 03:31:00;;;;;;;9.02;4.05;;;;;;;;;;6266078;28;20044;-82
2022/01/21 03:34:03;;;;;;;12.00;3.80;;;;;;;;;;6226311;28;20414;-78
2022/01/21 03:37:07;;;;;;;9.30;3.67;;;;;;;;;;6259188;28;20052;-80
2022/01/21 03:40:09;;;;;;;11.27;3.60;;;;;;;;;;6245439;28;20041;-82
2022/01/21 03:43:12;;;;;;;8.45;3.80;;;;;;;;;;6266091;28;20087;-79
2022/01/21 03:46:15;;;;;;;9.10;3.57;;;;;;;;;;6281565;28;20044;-81
2022/01/21 03:49:18;;;;;;;12.30;4.00;;;;;;;;;;6245161;28;20489;-82
2022/01/21 03:52:20;;;;;;;10.55;3.65;;;;;;;;;;6246156;28;20194;-79
2022/01/21 03:55:22;;;;;;;15.57;4.15;;;;;;;;;;6266909;28;20529;-82
2022/01/21 03:58:24;;;;;;;9.90;4.03;;;;;;;;;;6265769;28;20433;-82
2022/01/21 04:01:28;;;;;;;12.43;3.80;;;;;;;;;;6264844;28;20041;-82
2022/01/21 04:04:30;;;;;;;9.20;4.15;;;;;;;;;;6261302;28;20120;-82
2022/01/21 04:07:32;;;;;;;10.88;3.53;;;;;;;;;;6282652;28;20051;-82
2022/01/21 04:10:35;;;;;;;11.00;3.80;;;;;;;;;;6265514;28;20045;-82
2022/01/21 04:13:38;;;;;;;11.00;3.58;;;;;;;;;;6282471;28;20041;-81
2022/01/21 04:16:42;;;;;;;14.57;3.90;;;;;;;;;;6266071;28;20083;-82
2022/01/21 04:19:44;;;;;;;8.77;4.10;;;;;;;;;;6265534;28;20041;-79
2022/01/21 04:22:46;;;;;;;11.85;3.85;;;;;;;;;;6264722;28;20172;-79
2022/01/21 04:25:49;;;;;;;9.65;4.60;;;;;;;;;;6272473;28;20041;-78
2022/01/21 04:28:51;;;;;;;9.50;4.20;;;;;;;;;;6266086;28;20049;-81
2022/01/21 04:31:53;;;;;;;6.72;3.47;;;;;;;;;;6264544;28;20045;-80
2022/01/21 04:34:59;;;;;;;9.43;3.60;;;;;;;;;;6266021;28;20040;-81
2022/01/21 04:38:05;;;;;;;12.75;4.47;;;;;;;;;;6248197;28;20128;-80
2022/01/21 04:47:39;;;;;;;10.10;4.22;;;;;;;;;;6271769;28;20426;-81
2022/01/21 04:50:55;;;;;;;11.38;4.10;;;;;;;;;;6263540;28;20045;-82
2022/01/21 04:53:56;;;;;;;6.32;3.70;;;;;;;;;;6264834;28;20080;-82
2022/01/21 04:57:04;;;;;;;9.90;4.97;;;;;;;;;;6272530;28;20174;-81
2022/01/21 05:00:07;;;;;;;11.75;4.20;;;;;;;;;;6263535;28;20041;-80
2022/01/21 05:03:15;;;;;;;8.48;4.50;;;;;;;;;;6249226;28;20056;-80
2022/01/21 05:06:17;;;;;;;14.68;5.78;;;;;;;;;;6247541;28;20044;-82
2022/01/21 05:09:23;;;;;;;11.13;4.32;;;;;;;;;;6264547;28;20048;-81
2022/01/21 05:12:27;;;;;;;13.20;4.97;;;;;;;;;;6278836;28;20045;-81
2022/01/21 05:16:07;;;;;;;13.45;4.40;;;;;;;;;;6267219;28;20045;-82
2022/01/21 05:19:01;;;;;;;16.15;5.13;;;;;;;;;;6260202;28;20155;-79
2022/01/21 05:22:23;;;;;;;9.05;4.32;;;;;;;;;;6252908;28;20114;-84
2022/01/21 05:25:26;;;;;;;13.65;4.63;;;;;;;;;;6250664;28;20071;-81
2022/01/21 05:28:30;;;;;;;15.18;5.25;;;;;;;;;;6252916;28;20045;-80
2022/01/21 05:31:49;;;;;;;13.20;4.63;;;;;;;;;;6285464;28;20037;-79
2022/01/21 05:35:13;;;;;;;18.05;4.82;;;;;;;;;;6276862;28;20045;-83
2022/01/21 05:38:15;;;;;;;19.95;5.45;;;;;;;;;;6265981;28;20041;-79
2022/01/21 05:41:44;;;;;;;15.30;4.82;;;;;;;;;;6234508;28;20383;-79
2022/01/21 05:49:08;;;;;;;14.75;4.90;;;;;;;;;;6211364;28;20045;-84
2022/01/21 05:52:39;;;;;;;15.70;4.82;;;;;;;;;;6264086;28;20041;-80
2022/01/21 05:56:02;;;;;;;10.10;4.55;;;;;;;;;;6262426;28;20041;-82
2022/01/21 05:59:25;;;;;;;14.73;4.72;;;;;;;;;;6249747;28;20059;-81
2022/01/21 06:02:26;;;;;;;13.45;4.95;;;;;;;;;;6245651;28;20104;-80
2022/01/21 06:05:32;;;;;;;14.88;5.13;;;;;;;;;;6263107;28;20587;-81
2022/01/21 06:08:34;;;;;;;12.77;4.55;;;;;;;;;;6255969;28;20669;-84
2022/01/21 06:11:36;;;;;;;15.80;5.07;;;;;;;;;;6270355;28;20095;-82
2022/01/21 06:14:38;;;;;;;13.88;5.15;;;;;;;;;;6272740;28;20067;-83
2022/01/21 06:17:44;;;;;;;15.35;5.55;;;;;;;;;;6271954;28;20044;-82
2022/01/21 06:20:46;;;;;;;15.48;5.47;;;;;;;;;;6272521;28;20047;-82
2022/01/21 06:23:48;;;;;;;17.55;6.25;;;;;;;;;;6254447;28;20041;-86
2022/01/21 06:26:49;;;;;;;17.73;6.00;;;;;;;;;;6271481;28;20128;-83
2022/01/21 06:29:51;;;;;;;15.25;5.25;;;;;;;;;;6272450;28;20041;-83
2022/01/21 06:32:53;;;;;;;19.98;5.28;;;;;;;;;;6291923;28;20041;-82
2022/01/21 06:35:55;;;;;;;10.38;5.43;;;;;;;;;;6289738;28;20443;-84
2022/01/21 06:38:56;;;;;;;14.77;5.13;;;;;;;;;;6287387;28;20478;-85
2022/01/21 06:41:58;;;;;;;15.60;5.03;;;;;;;;;;6270718;28;20041;-85
2022/01/21 06:45:01;;;;;;;17.63;6.13;;;;;;;;;;6271130;28;20127;-83
2022/01/21 06:48:03;;;;;;;21.48;5.93;;;;;;;;;;6254197;28;20123;-86
2022/01/21 06:51:04;;;;;;;13.65;5.78;;;;;;;;;;6262955;28;20327;-82
2022/01/21 06:54:06;;;;;;;14.32;6.05;;;;;;;;;;6264627;28;20109;-82
2022/01/21 06:57:08;;;;;;;15.52;6.28;;;;;;;;;;6265263;28;20409;-83
2022/01/21 07:00:13;;;;;;;17.75;5.60;;;;;;;;;;6271004;28;20053;-86
2022/01/21 07:03:15;;;;;;;16.65;6.90;;;;;;;;;;6277287;28;20060;-83
2022/01/21 07:06:16;;;;;;;15.27;6.13;;;;;;;;;;6273138;28;20051;-84
2022/01/21 07:09:18;;;;;;;13.90;5.60;;;;;;;;;;6270718;28;20057;-83
2022/01/21 07:12:20;;;;;;;14.73;6.38;;;;;;;;;;6270604;28;20127;-84
2022/01/21 07:15:22;;;;;;;15.02;6.88;;;;;;;;;;6271881;28;20108;-84
2022/01/21 07:18:23;;;;;;;51.80;18.63;;;;;;;;;;6271986;28;20426;-83
2022/01/21 07:21:25;;;;;;;97.80;45.40;;;;;;;;;;6272311;28;20057;-83
2022/01/21 07:24:26;;;;;;;12.80;5.85;;;;;;;;;;6252894;28;20047;-82
2022/01/21 07:27:28;;;;;;;16.05;6.45;;;;;;;;;;6254383;28;20038;-82
2022/01/21 07:30:30;;;;;;;13.82;6.35;;;;;;;;;;6271298;28;20041;-83
2022/01/21 07:33:31;;;;;;;15.18;6.45;;;;;;;;;;6241542;28;20092;-82
2022/01/21 07:36:33;;;;;;;14.63;6.10;;;;;;;;;;6267305;28;20218;-81
2022/01/21 07:39:35;;;;;;;13.32;5.95;;;;;;;;;;6268348;28;20116;-80
2022/01/21 07:42:36;;;;;;;16.85;6.32;;;;;;;;;;6265558;28;20116;-83
2022/01/21 07:45:38;;;;;;;15.98;6.32;;;;;;;;;;6275446;28;20104;-84
2022/01/21 07:48:40;;;;;;;14.43;6.78;;;;;;;;;;6275768;28;20102;-82
2022/01/21 07:51:42;;;;;;;12.07;5.93;;;;;;;;;;6288094;28;20521;-81
2022/01/21 07:54:44;;;;;;;19.97;6.27;;;;;;;;;;6288684;28;20120;-85
2022/01/21 07:57:46;;;;;;;13.45;5.15;;;;;;;;;;6286802;28;20178;-84
2022/01/21 08:00:48;;;;;;;13.18;6.10;;;;;;;;;;6254539;28;20047;-83
2022/01/21 08:03:50;;;;;;;12.38;5.47;;;;;;;;;;6274603;28;20044;-85
2022/01/21 08:06:51;;;;;;;13.40;4.68;;;;;;;;;;6274995;28;20128;-83
2022/01/21 08:09:53;;;;;;;21.67;6.38;;;;;;;;;;6275261;28;20055;-84
2022/01/21 08:12:55;;;;;;;12.93;5.90;;;;;;;;;;6268667;28;20045;-83
2022/01/21 08:15:59;;;;;;;13.18;5.53;;;;;;;;;;6272177;28;20063;-83
2022/01/21 08:19:03;;;;;;;11.35;5.05;;;;;;;;;;6279333;28;20041;-83
2022/01/21 08:22:05;;;;;;;24.30;8.27;;;;;;;;;;6266726;28;20801;-83
2022/01/21 08:25:08;;;;;;;19.17;5.75;;;;;;;;;;6283390;28;20132;-85
2022/01/21 08:28:10;;;;;;;;;;;;;;;;;;6269394;28;20063;-83
2022/01/21 08:31:11;;;;;;;13.05;5.03;;;;;;;;;;6263404;28;19927;-84
2022/01/21 08:34:14;;;;;;;10.90;5.00;;;;;;;;;;6270485;28;20567;-84
2022/01/21 08:37:16;;;;;;;35.93;11.43;;;;;;;;;;6268121;28;20037;-83
2022/01/21 08:40:19;;;;;;;43.93;12.87;;;;;;;;;;6272268;28;20488;-85
2022/01/21 08:43:21;;;;;;;18.38;6.55;;;;;;;;;;6289323;28;20741;-84
2022/01/21 08:46:23;;;;;;;36.95;10.48;;;;;;;;;;6270636;28;20067;-84
2022/01/21 08:49:25;;;;;;;14.70;5.68;;;;;;;;;;6267111;28;20098;-83
2022/01/21 08:52:29;;;;;;;18.38;7.22;;;;;;;;;;6266414;28;20060;-83
2022/01/21 08:55:30;;;;;;;39.67;11.13;;;;;;;;;;6276746;28;20107;-85
2022/01/21 08:58:33;;;;;;;18.02;6.60;;;;;;;;;;6280369;28;20088;-84
2022/01/21 09:01:34;;;;;;;12.93;5.32;;;;;;;;;;6265476;28;20041;-84
2022/01/21 09:04:36;;;;;;;17.45;6.75;;;;;;;;;;6270095;28;20041;-83
2022/01/21 09:07:39;;;;;;;16.00;5.60;;;;;;;;;;6265096;28;20055;-83
2022/01/21 09:10:40;;;;;;;10.98;5.40;;;;;;;;;;6265700;28;20067;-81
2022/01/21 09:13:42;;;;;;;18.10;5.68;;;;;;;;;;6268373;28;20524;-81
2022/01/21 09:16:44;;;;;;;17.60;5.65;;;;;;;;;;6268316;28;20075;-84
2022/01/21 09:19:46;;;;;;;23.67;7.93;;;;;;;;;;6273437;28;20049;-87
2022/01/21 09:22:47;;;;;;;14.77;6.43;;;;;;;;;;6276103;28;20069;-82
2022/01/21 09:25:49;;;;;;;17.10;6.10;;;;;;;;;;6252704;28;20045;-84
2022/01/21 09:28:51;;;;;;;11.82;6.53;;;;;;;;;;6271859;28;20041;-84
2022/01/21 09:31:53;;;;;;;13.80;5.60;;;;;;;;;;6253015;28;20139;-82
2022/01/21 09:34:56;;;;;;;29.25;9.38;;;;;;;;;;6272655;28;20065;-85
2022/01/21 09:37:58;;;;;;;12.43;5.00;;;;;;;;;;6259688;28;20053;-84
2022/01/21 09:41:17;;;;;;;56.08;17.10;;;;;;;;;;6299566;28;20045;-86
2022/01/21 09:44:20;;;;;;;115.68;38.60;;;;;;;;;;6299903;28;20060;-86
2022/01/21 09:47:22;;;;;;;19.52;7.00;;;;;;;;;;6289619;28;20064;-86
2022/01/21 09:50:24;;;;;;;17.15;6.65;;;;;;;;;;6295732;28;20125;-82
2022/01/21 09:53:35;;;;;;;13.88;5.57;;;;;;;;;;6265509;28;20052;-84
2022/01/21 09:56:38;;;;;;;16.65;6.03;;;;;;;;;;6269036;28;20043;-80
2022/01/21 09:59:40;;;;;;;18.17;6.97;;;;;;;;;;6270846;28;20115;-81
2022/01/21 10:02:43;;;;;;;17.23;6.22;;;;;;;;;;6275475;28;20041;-87
2022/01/21 10:05:46;;;;;;;;;;;;;;;;;;6264146;28;20104;-82
2022/01/21 10:08:50;;;;;;;13.48;5.85;;;;;;;;;;6270396;28;19967;-83
2022/01/21 10:11:53;;;;;;;15.85;7.70;;;;;;;;;;6267155;28;20116;-83
2022/01/21 10:14:55;;;;;;;;;;;;;;;;;;6268930;28;20091;-82
2022/01/21 10:18:19;;;;;;;15.63;5.53;;;;;;;;;;6270610;28;19931;-82
2022/01/21 10:21:28;;;;;;;11.45;5.05;;;;;;;;;;6287268;28;20045;-82
2022/01/21 10:24:32;;;;;;;11.90;5.53;;;;;;;;;;6271108;28;20048;-83
2022/01/21 10:27:38;;;;;;;12.38;5.88;;;;;;;;;;6285610;28;20405;-83
2022/01/21 10:30:41;;;;;;;15.80;6.15;;;;;;;;;;6287769;28;20055;-83
2022/01/21 10:33:45;;;;;;;12.48;5.88;;;;;;;;;;6254442;28;20047;-84
2022/01/21 10:36:53;;;;;;;14.88;6.03;;;;;;;;;;6271455;28;20049;-84
2022/01/21 10:40:06;;;;;;;13.35;5.90;;;;;;;;;;6271248;28;20118;-85
2022/01/21 10:43:25;;;;;;;17.23;8.63;;;;;;;;;;6254823;28;20076;-83
2022/01/21 10:46:27;;;;;;;16.38;6.47;;;;;;;;;;6272909;28;20076;-84
2022/01/21 10:49:28;;;;;;;16.75;7.53;;;;;;;;;;6274139;28;20041;-81
2022/01/21 10:52:46;;;;;;;17.58;7.50;;;;;;;;;;6273177;28;20127;-81
2022/01/21 10:55:51;;;;;;;16.38;6.93;;;;;;;;;;6270809;28;20041;-83
2022/01/21 10:58:56;;;;;;;20.80;7.28;;;;;;;;;;6284419;28;20065;-83
2022/01/21 11:01:59;;;;;;;15.35;5.93;;;;;;;;;;6284021;28;20120;-83
2022/01/21 11:05:09;;;;;;;14.73;7.07;;;;;;;;;;6270166;28;20040;-81
2022/01/21 11:08:12;;;;;;;10.82;5.78;;;;;;;;;;6282814;28;20049;-83
2022/01/21 11:11:21;;;;;;;15.05;5.97;;;;;;;;;;6264156;28;20049;-81
2022/01/21 11:14:23;;;;;;;15.63;6.63;;;;;;;;;;6266975;28;20305;-82
2022/01/21 11:17:25;;;;;;;14.40;6.28;;;;;;;;;;6265892;28;20105;-85
2022/01/21 11:20:37;;;;;;;14.98;5.53;;;;;;;;;;6248052;28;20071;-83
2022/01/21 11:23:39;;;;;;;9.00;5.25;;;;;;;;;;6280495;28;20045;-82
2022/01/21 11:26:42;;;;;;;13.48;5.82;;;;;;;;;;6266110;28;20055;-85
2022/01/21 11:29:46;;;;;;;13.20;5.60;;;;;;;;;;6269015;28;20037;-82
2022/01/21 11:32:48;;;;;;;13.23;5.50;;;;;;;;;;6269627;28;20037;-81
2022/01/21 11:35:51;;;;;;;13.18;5.43;;;;;;;;;;6269274;28;20041;-82
2022/01/21 11:38:55;;;;;;;14.35;5.88;;;;;;;;;;6267790;28;20482;-83
2022/01/21 11:41:58;;;;;;;13.82;6.30;;;;;;;;;;6250325;28;20029;-82
2022/01/21 11:45:17;;;;;;;11.75;5.85;;;;;;;;;;6284407;28;20045;-79
2022/01/21 11:51:36;;;;;;;12.38;5.30;;;;;;;;;;6268955;28;20049;-81
2022/01/21 11:54:39;;;;;;;10.70;4.93;;;;;;;;;;6267870;28;20064;-80
2022/01/21 11:57:40;;;;;;;12.73;5.13;;;;;;;;;;6268420;28;20041;-78
2022/01/21 12:00:43;;;;;;;14.25;5.35;;;;;;;;;;6264091;28;20041;-83
2022/01/21 12:03:54;;;;;;;13.25;5.70;;;;;;;;;;6266055;28;20472;-83
2022/01/21 12:06:59;;;;;;;11.00;5.18;;;;;;;;;;6257291;28;20132;-80
2022/01/21 12:10:26;;;;;;;15.38;6.60;;;;;;;;;;6279522;28;20116;-82
2022/01/21 12:13:31;;;;;;;16.13;7.07;;;;;;;;;;6263347;28;20136;-82
2022/01/21 12:16:58;;;;;;;21.50;7.15;;;;;;;;;;6246751;28;20036;-82
2022/01/21 12:20:05;;;;;;;16.05;7.05;;;;;;;;;;6262110;28;20414;-82
2022/01/21 12:23:15;;;;;;;16.20;6.82;;;;;;;;;;6272882;28;20136;-80
2022/01/21 12:26:18;;;;;;;17.52;6.68;;;;;;;;;;6267973;28;20045;-79
2022/01/21 12:29:22;;;;;;;18.80;6.63;;;;;;;;;;6268601;28;20033;-80
2022/01/21 12:32:50;;;;;;;15.52;6.32;;;;;;;;;;6266909;28;20048;-81
2022/01/21 12:36:11;;;;;;;14.40;6.72;;;;;;;;;;6262870;28;20084;-80
2022/01/21 12:39:45;;;;;;;15.88;7.25;;;;;;;;;;6280509;28;20510;-80
2022/01/21 12:42:46;;;;;;;16.50;7.18;;;;;;;;;;6279989;28;20051;-82
2022/01/21 12:46:02;;;;;;;19.65;7.40;;;;;;;;;;6269140;28;20128;-82
2022/01/21 12:49:33;;;;;;;22.85;8.73;;;;;;;;;;6269577;28;20090;-84
2022/01/21 12:53:23;;;;;;;17.42;7.07;;;;;;;;;;6246757;28;20052;-82
2022/01/21 12:56:27;;;;;;;15.43;6.90;;;;;;;;;;6263883;28;20039;-83
2022/01/21 12:59:29;;;;;;;19.23;7.45;;;;;;;;;;6285390;28;20041;-84
2022/01/21 13:02:33;;;;;;;15.07;6.28;;;;;;;;;;6267856;28;20120;-83
2022/01/21 13:05:42;;;;;;;17.20;6.95;;;;;;;;;;6268670;28;20045;-85
2022/01/21 13:08:58;;;;;;;17.17;6.90;;;;;;;;;;6270165;28;20120;-83
2022/01/21 13:12:06;;;;;;;17.90;7.03;;;;;;;;;;6266578;28;20055;-83
2022/01/21 13:15:08;;;;;;;18.15;7.18;;;;;;;;;;6268960;28;20049;-83
2022/01/21 13:18:19;;;;;;;21.50;6.78;;;;;;;;;;6250664;28;20069;-84
2022/01/21 13:21:20;;;;;;;17.85;8.52;;;;;;;;;;6271421;28;20104;-83
2022/01/21 13:24:28;;;;;;;19.42;7.85;;;;;;;;;;6274555;28;20761;-81
2022/01/21 13:27:30;;;;;;;22.58;8.10;;;;;;;;;;6271449;28;20052;-84
2022/01/21 13:30:36;;;;;;;19.70;7.60;;;;;;;;;;6273785;28;20037;-81
2022/01/21 13:33:38;;;;;;;15.13;7.15;;;;;;;;;;6272803;28;20041;-83
2022/01/21 13:36:47;;;;;;;19.42;7.10;;;;;;;;;;6272189;28;20524;-83
2022/01/21 13:39:49;;;;;;;21.77;8.40;;;;;;;;;;6271231;28;20111;-84
2022/01/21 13:42:51;;;;;;;18.77;7.50;;;;;;;;;;6271652;28;20632;-82
2022/01/21 13:45:56;;;;;;;16.27;7.70;;;;;;;;;;6273970;28;20104;-83
2022/01/21 13:48:57;;;;;;;22.27;8.57;;;;;;;;;;6287098;28;20047;-84
2022/01/21 13:52:03;;;;;;;20.77;7.72;;;;;;;;;;6271994;28;20398;-81
2022/01/21 13:55:07;;;;;;;23.92;9.27;;;;;;;;;;6271221;28;20128;-84
2022/01/21 13:58:12;;;;;;;24.73;8.48;;;;;;;;;;6279951;28;20426;-81
2022/01/21 14:01:14;;;;;;;24.00;8.65;;;;;;;;;;6248684;28;20049;-80
2022/01/21 14:04:16;;;;;;;20.40;8.93;;;;;;;;;;6254933;28;20640;-82
2022/01/21 14:07:29;;;;;;;26.70;8.73;;;;;;;;;;6271802;28;20138;-83
2022/01/21 14:10:31;;;;;;;19.17;8.65;;;;;;;;;;6272237;28;20091;-82
2022/01/21 14:13:38;;;;;;;25.35;9.05;;;;;;;;;;6253487;28;20061;-83
2022/01/21 14:16:46;;;;;;;28.02;9.15;;;;;;;;;;6267494;28;20069;-84
2022/01/21 14:19:48;;;;;;;23.55;8.95;;;;;;;;;;6262738;28;20048;-83
2022/01/21 14:22:50;;;;;;;29.17;9.73;;;;;;;;;;6267328;28;20784;-81
2022/01/21 14:25:53;;;;;;;26.20;9.57;;;;;;;;;;6262705;28;20136;-83
2022/01/21 14:28:59;;;;;;;21.25;9.73;;;;;;;;;;6263987;28;20133;-82
2022/01/21 14:32:40;;;;;;;25.98;8.52;;;;;;;;;;6269578;28;20071;-82
2022/01/21 14:35:46;;;;;;;27.38;9.07;;;;;;;;;;6269045;28;20041;-83
2022/01/21 14:38:49;;;;;;;25.35;10.13;;;;;;;;;;6274195;28;20124;-83
2022/01/21 14:41:53;;;;;;;;;;;;;;;;;;6273301;28;20134;-82
2022/01/21 14:44:59;;;;;;;24.35;8.85;;;;;;;;;;6270453;28;19927;-84
2022/01/21 14:48:23;;;;;;;26.70;8.77;;;;;;;;;;6273892;28;20048;-83
2022/01/21 14:51:50;;;;;;;20.10;9.43;;;;;;;;;;6271507;28;20176;-82
2022/01/21 14:54:53;;;;;;;22.83;9.80;;;;;;;;;;6258590;28;20577;-83
2022/01/21 14:57:58;;;;;;;23.30;9.25;;;;;;;;;;6289026;28;20045;-83
2022/01/21 15:01:05;;;;;;;25.13;8.43;;;;;;;;;;6288784;28;20524;-82
2022/01/21 15:04:13;;;;;;;26.55;9.85;;;;;;;;;;6288935;28;20425;-83
2022/01/21 15:07:26;;;;;;;24.08;9.18;;;;;;;;;;6282065;28;20526;-84
2022/01/21 15:10:51;;;;;;;24.10;8.37;;;;;;;;;;6287397;28;20055;-83
2022/01/21 15:17:27;;;;;;;19.67;7.55;;;;;;;;;;6270996;28;20124;-83
2022/01/21 15:20:33;;;;;;;;;;;;;;;;;;6263628;28;20199;-81
2022/01/21 15:23:34;;;;;;;15.63;8.05;;;;;;;;;;6271551;28;20008;-83
2022/01/21 15:26:42;;;;;;;21.77;8.65;;;;;;;;;;6272858;28;20045;-82
2022/01/21 15:29:44;;;;;;;;;;;;;;;;;;6270234;28;20045;-84
2022/01/21 15:32:46;;;;;;;19.17;8.02;;;;;;;;;;6269709;28;19921;-83
2022/01/21 15:35:47;;;;;;;17.48;8.10;;;;;;;;;;6287047;28;20498;-83
2022/01/21 15:38:51;;;;;;;22.95;8.95;;;;;;;;;;6270579;28;20128;-83
2022/01/21 15:41:54;;;;;;;18.05;8.60;;;;;;;;;;6275395;28;20025;-82
2022/01/21 15:44:57;;;;;;;16.33;8.18;;;;;;;;;;6284170;28;20067;-82
2022/01/21 15:47:59;;;;;;;18.77;8.45;;;;;;;;;;6267630;28;20494;-83
2022/01/21 15:51:01;;;;;;;17.52;8.63;;;;;;;;;;6254121;28;20116;-84
2022/01/21 15:54:03;;;;;;;18.77;8.68;;;;;;;;;;6263655;28;20132;-82
2022/01/21 15:57:05;;;;;;;22.90;8.65;;;;;;;;;;6266722;28;20061;-84
2022/01/21 16:00:08;;;;;;;19.35;8.65;;;;;;;;;;6246106;28;20059;-83
2022/01/21 16:03:10;;;;;;;23.80;9.40;;;;;;;;;;6264050;28;20056;-83
2022/01/21 16:06:12;;;;;;;16.85;8.98;;;;;;;;;;6263577;28;20667;-83
2022/01/21 16:09:15;;;;;;;18.20;9.68;;;;;;;;;;6279302;28;20045;-82
2022/01/21 16:12:17;;;;;;;24.67;10.25;;;;;;;;;;6261870;28;20128;-82
2022/01/21 16:15:19;;;;;;;21.73;10.10;;;;;;;;;;6275483;28;20083;-83
2022/01/21 16:18:20;;;;;;;23.13;10.85;;;;;;;;;;6262321;28;20512;-85
2022/01/21 16:21:23;;;;;;;26.42;10.80;;;;;;;;;;6261017;28;20104;-79
2022/01/21 16:24:25;;;;;;;;;;;;;;;;;;6279713;28;20079;-81
2022/01/21 16:27:27;;;;;;;20.95;9.57;;;;;;;;;;6261578;28;19970;-85
2022/01/21 16:30:29;;;;;;;26.00;11.25;;;;;;;;;;6263254;28;20048;-82
2022/01/21 16:33:30;;;;;;;30.95;13.13;;;;;;;;;;6259657;28;20048;-86
2022/01/21 16:36:34;;;;;;;39.35;15.43;;;;;;;;;;6262322;28;20047;-83
2022/01/21 16:39:36;;;;;;;65.78;25.92;;;;;;;;;;6263273;28;20101;-86
2022/01/21 16:42:38;;;;;;;81.05;30.80;;;;;;;;;;6270287;28;20044;-83
2022/01/21 16:45:40;;;;;;;55.47;24.67;;;;;;;;;;6258131;28;20057;-81
2022/01/21 16:48:43;;;;;;;44.23;18.10;;;;;;;;;;6239963;28;20119;-82
2022/01/21 16:51:44;;;;;;;23.47;11.30;;;;;;;;;;6260759;28;20043;-85
2022/01/21 16:54:46;;;;;;;18.52;9.60;;;;;;;;;;6269594;28;20059;-84
2022/01/21 16:57:52;;;;;;;18.38;9.27;;;;;;;;;;6274538;28;21569;-84
2022/01/21 17:00:54;;;;;;;20.58;10.52;;;;;;;;;;6251100;28;20053;-82
2022/01/21 17:03:56;;;;;;;26.08;12.38;;;;;;;;;;6255305;28;20045;-84
2022/01/21 17:06:58;;;;;;;23.63;11.70;;;;;;;;;;6274397;28;20068;-84
2022/01/21 17:09:59;;;;;;;25.85;11.93;;;;;;;;;;6273317;28;20064;-85
2022/01/21 17:13:01;;;;;;;27.25;10.95;;;;;;;;;;6264497;28;20055;-82
2022/01/21 17:16:03;;;;;;;21.30;10.77;;;;;;;;;;6265624;28;20491;-81
2022/01/21 17:19:10;;;;;;;21.85;10.25;;;;;;;;;;6265610;28;20144;-83
2022/01/21 17:22:14;;;;;;;22.27;10.80;;;;;;;;;;6267216;28;20053;-83
2022/01/21 17:25:16;;;;;;;23.80;11.57;;;;;;;;;;6262950;28;20132;-83
2022/01/21 17:28:18;;;;;;;20.33;9.43;;;;;;;;;;6266840;28;20091;-81
2022/01/21 17:31:20;;;;;;;19.73;10.13;;;;;;;;;;6263938;28;20044;-82
2022/01/21 17:34:21;;;;;;;20.27;9.88;;;;;;;;;;6265821;28;20045;-83
2022/01/21 17:37:28;;;;;;;21.77;10.48;;;;;;;;;;6271511;28;20036;-84
2022/01/21 17:40:30;;;;;;;22.63;10.27;;;;;;;;;;6283559;28;20041;-83
2022/01/21 17:43:32;;;;;;;22.77;10.63;;;;;;;;;;6245546;28;20044;-83
2022/01/21 17:46:34;;;;;;;24.55;11.40;;;;;;;;;;6274606;28;20044;-83
2022/01/21 17:49:37;;;;;;;21.85;10.65;;;;;;;;;;6264167;28;20041;-87
2022/01/21 17:52:40;;;;;;;22.58;10.60;;;;;;;;;;6264485;28;20044;-83
2022/01/21 17:55:42;;;;;;;23.15;11.15;;;;;;;;;;6249910;28;20135;-83
2022/01/21 17:58:44;;;;;;;25.75;11.95;;;;;;;;;;6288241;28;20043;-83
2022/01/21 18:01:46;;;;;;;25.17;11.00;;;;;;;;;;6266266;28;20037;-83
2022/01/21 18:04:50;;;;;;;26.60;12.32;;;;;;;;;;6263528;28;20098;-83
2022/01/21 18:07:53;;;;;;;22.60;10.05;;;;;;;;;;6267005;28;20098;-81
2022/01/21 18:11:13;;;;;;;25.57;11.37;;;;;;;;;;6269941;28;20178;-81
2022/01/21 18:14:17;;;;;;;27.98;11.80;;;;;;;;;;6260511;28;20040;-86
2022/01/21 18:17:19;;;;;;;22.58;10.13;;;;;;;;;;6268789;28;20052;-83
2022/01/21 18:20:21;;;;;;;24.67;9.93;;;;;;;;;;6271299;28;20049;-83
2022/01/21 18:23:23;;;;;;;23.02;10.88;;;;;;;;;;6284311;28;20049;-84
2022/01/21 18:26:25;;;;;;;27.10;11.55;;;;;;;;;;6269155;28;20052;-80
2022/01/21 18:29:28;;;;;;;26.52;11.15;;;;;;;;;;6269711;28;20130;-82
2022/01/21 18:32:30;;;;;;;25.58;10.05;;;;;;;;;;6280374;28;20045;-83
2022/01/21 18:35:32;;;;;;;23.33;10.27;;;;;;;;;;6268206;28;20045;-82
2022/01/21 18:38:36;;;;;;;26.00;11.10;;;;;;;;;;6284101;28;20480;-83
2022/01/21 18:41:58;;;;;;;25.42;10.70;;;;;;;;;;6269669;28;20049;-83
2022/01/21 18:45:09;;;;;;;29.43;12.17;;;;;;;;;;6269140;28;20051;-82
2022/01/21 18:48:11;;;;;;;24.80;11.05;;;;;;;;;;6271159;28;20130;-81
2022/01/21 18:51:23;;;;;;;26.80;10.57;;;;;;;;;;6271177;28;20044;-86
2022/01/21 18:54:25;;;;;;;27.10;11.13;;;;;;;;;;6270430;28;20037;-82
2022/01/21 18:57:27;;;;;;;28.65;11.02;;;;;;;;;;6254615;28;20049;-82
2022/01/21 19:00:28;;;;;;;24.83;10.93;;;;;;;;;;6271179;28;20047;-86
2022/01/21 19:03:30;;;;;;;24.08;11.27;;;;;;;;;;6253116;28;20041;-80
2022/01/21 19:06:37;;;;;;;25.88;10.00;;;;;;;;;;6253624;28;20068;-82